Maitland, Australia
Current Conditions -  °F | °C
As of 10:00 PM on Wednesday 22 Oct 2014 (Local Time) from YPAD Reporting Station
Broken Clouds Broken Clouds  
Wind Chill: 61°   Ceiling: 32000
Heat Index: 61°   Visibility: 6mi
Dew Point: 54°   Wind: 16mph
Humidity: 77%   Direction: 180°S
Pressure: 30.09"   Gusts: NA
Location:  34.37°S, 137.67°E
Report Text: YPAD 221200Z 18014KT 9999 FEW022 BKN320 16/12 Q1019 NOSIG
Loading
Personal Weather Stations






























Interactive Weather Map
Tropical Storm Tracking
New forecast layout! Learn more

10-Day Weather Forecast

Advertisements
Track Severe Weather on mobile